createdAt,value
2022-07-27T00:00:40.947Z,0
2022-07-27T00:01:40.890Z,0
2022-07-27T00:02:40.896Z,0
2022-07-27T00:03:40.890Z,0
2022-07-27T00:04:40.935Z,0
2022-07-27T00:05:40.888Z,0
2022-07-27T00:06:40.885Z,0
2022-07-27T00:07:40.890Z,0
2022-07-27T00:08:40.893Z,0
2022-07-27T00:09:40.901Z,0
2022-07-27T00:10:40.905Z,0
2022-07-27T00:11:40.911Z,0
2022-07-27T00:12:40.884Z,0
2022-07-27T00:13:40.894Z,0
2022-07-27T00:14:40.905Z,0
2022-07-27T00:15:40.877Z,0
2022-07-27T00:16:40.975Z,0
2022-07-27T00:17:40.886Z,0
2022-07-27T00:18:40.886Z,0
2022-07-27T00:19:40.896Z,0
2022-07-27T00:20:40.892Z,0
2022-07-27T00:21:44.667Z,0
2022-07-27T00:22:40.881Z,0
2022-07-27T00:23:40.883Z,0
2022-07-27T00:24:40.897Z,0
2022-07-27T00:25:40.908Z,0
2022-07-27T00:26:40.913Z,0
2022-07-27T00:27:40.886Z,0
2022-07-27T00:28:40.880Z,0
2022-07-27T00:29:40.914Z,0
2022-07-27T00:30:40.882Z,0
2022-07-27T00:31:40.938Z,0
2022-07-27T00:32:40.880Z,0
2022-07-27T00:33:40.885Z,0
2022-07-27T00:34:40.896Z,0
2022-07-27T00:35:40.892Z,0
2022-07-27T00:36:40.894Z,0
2022-07-27T00:37:40.896Z,0
2022-07-27T00:38:40.883Z,0
2022-07-27T00:39:40.909Z,0
2022-07-27T00:40:40.879Z,0
2022-07-27T00:41:40.894Z,0
2022-07-27T00:42:40.884Z,0
2022-07-27T00:43:40.883Z,0
2022-07-27T00:44:40.903Z,0
2022-07-27T00:45:40.877Z,0
2022-07-27T00:46:40.924Z,0
2022-07-27T00:47:40.896Z,0
2022-07-27T00:48:40.961Z,0
2022-07-27T00:49:40.900Z,0
2022-07-27T00:50:40.894Z,0
2022-07-27T00:51:40.883Z,0
2022-07-27T00:52:40.876Z,0
2022-07-27T00:53:40.885Z,0
2022-07-27T00:54:40.882Z,0
2022-07-27T00:55:40.894Z,0
2022-07-27T00:56:40.901Z,0
2022-07-27T00:57:58.360Z,0
2022-07-27T00:58:40.888Z,0
2022-07-27T00:59:40.901Z,0
2022-07-27T01:00:40.898Z,0
2022-07-27T01:01:41.018Z,0
2022-07-27T01:02:45.708Z,0
2022-07-27T01:03:40.895Z,0
2022-07-27T01:04:40.932Z,0
2022-07-27T01:05:43.142Z,0
2022-07-27T01:06:40.899Z,0
2022-07-27T01:07:40.873Z,0
2022-07-27T01:08:40.874Z,0
2022-07-27T01:09:40.897Z,0
2022-07-27T01:10:40.886Z,0
2022-07-27T01:11:40.892Z,0
2022-07-27T01:12:40.887Z,0
2022-07-27T01:13:40.885Z,0
2022-07-27T01:14:40.895Z,0
2022-07-27T01:15:41.019Z,0
2022-07-27T01:16:41.034Z,0
2022-07-27T01:17:40.882Z,0
2022-07-27T01:18:40.883Z,0
2022-07-27T01:19:40.903Z,0
2022-07-27T01:20:40.886Z,0
2022-07-27T01:21:40.879Z,0
2022-07-27T01:22:40.873Z,0
2022-07-27T01:23:40.923Z,0
2022-07-27T01:24:40.902Z,0
2022-07-27T01:25:40.878Z,0
2022-07-27T01:26:40.900Z,0
2022-07-27T01:27:40.881Z,0
2022-07-27T01:28:40.883Z,0
2022-07-27T01:29:40.902Z,0
2022-07-27T01:30:40.895Z,0
2022-07-27T01:31:40.969Z,0
2022-07-27T01:32:40.889Z,0
2022-07-27T01:33:40.884Z,0
2022-07-27T01:34:40.898Z,0
2022-07-27T01:35:40.878Z,0
2022-07-27T01:36:40.881Z,0
2022-07-27T01:37:40.882Z,0
2022-07-27T01:38:40.878Z,0
2022-07-27T01:39:40.895Z,0
2022-07-27T01:40:40.886Z,0
2022-07-27T01:41:40.896Z,0
2022-07-27T01:42:40.883Z,0
2022-07-27T01:43:40.885Z,0
2022-07-27T01:44:40.905Z,0
2022-07-27T01:45:40.881Z,0
2022-07-27T01:46:40.958Z,0
2022-07-27T01:47:40.881Z,0
2022-07-27T01:48:40.943Z,0
2022-07-27T01:49:41.056Z,0
2022-07-27T01:50:40.880Z,0
2022-07-27T01:51:40.884Z,0
2022-07-27T01:52:40.872Z,0
2022-07-27T01:53:40.880Z,0
2022-07-27T01:54:40.885Z,0
2022-07-27T01:55:40.888Z,0
2022-07-27T01:56:40.901Z,0
2022-07-27T01:57:40.899Z,0
2022-07-27T01:58:40.882Z,0
2022-07-27T01:59:40.894Z,0
2022-07-27T02:00:40.892Z,0
2022-07-27T02:01:40.947Z,0
2022-07-27T02:02:40.878Z,0
2022-07-27T02:03:40.890Z,0
2022-07-27T02:04:40.903Z,0
2022-07-27T02:05:40.958Z,0
2022-07-27T02:06:40.880Z,0
2022-07-27T02:07:40.953Z,0
2022-07-27T02:08:40.885Z,0
2022-07-27T02:09:40.902Z,0
2022-07-27T02:10:40.877Z,0
2022-07-27T02:11:40.892Z,0
2022-07-27T02:12:40.877Z,0
2022-07-27T02:13:40.880Z,0
2022-07-27T02:14:40.906Z,0
2022-07-27T02:15:43.168Z,0
2022-07-27T02:16:40.998Z,0
2022-07-27T02:17:40.878Z,0
2022-07-27T02:18:40.884Z,0
2022-07-27T02:19:40.891Z,0
2022-07-27T02:20:40.894Z,0
2022-07-27T02:21:40.880Z,0
2022-07-27T02:22:40.886Z,0
2022-07-27T02:23:40.881Z,0
2022-07-27T02:24:40.902Z,0
2022-07-27T02:25:40.880Z,0
2022-07-27T02:26:40.896Z,0
2022-07-27T02:27:40.881Z,0
2022-07-27T02:28:40.883Z,0
2022-07-27T02:29:40.903Z,0
2022-07-27T02:30:40.884Z,0
2022-07-27T02:31:40.885Z,0
2022-07-27T02:32:41.019Z,0
2022-07-27T02:33:40.882Z,0
2022-07-27T02:34:40.902Z,0
2022-07-27T02:35:40.881Z,0
2022-07-27T02:36:40.882Z,0
2022-07-27T02:37:40.878Z,0
2022-07-27T02:38:40.886Z,0
2022-07-27T02:39:40.897Z,0
2022-07-27T02:40:40.880Z,0
2022-07-27T02:41:40.901Z,0
2022-07-27T02:42:40.893Z,0
2022-07-27T02:43:40.882Z,0
2022-07-27T02:44:40.897Z,0
2022-07-27T02:45:40.879Z,0
2022-07-27T02:46:40.936Z,0
2022-07-27T02:47:40.881Z,0
2022-07-27T02:48:40.894Z,0
2022-07-27T02:49:40.901Z,0
2022-07-27T02:50:40.886Z,0
2022-07-27T02:51:40.964Z,0
2022-07-27T02:52:40.888Z,0
2022-07-27T02:53:40.891Z,0
2022-07-27T02:54:40.893Z,1
2022-07-27T02:55:40.876Z,1
2022-07-27T02:56:40.913Z,1
2022-07-27T02:57:41.011Z,3
2022-07-27T02:58:40.883Z,3
2022-07-27T02:59:40.905Z,3
2022-07-27T03:00:40.884Z,5
2022-07-27T03:01:40.941Z,5
2022-07-27T03:02:40.941Z,7
2022-07-27T03:03:40.881Z,7
2022-07-27T03:04:40.988Z,9
2022-07-27T03:05:40.889Z,11
2022-07-27T03:06:40.890Z,14
2022-07-27T03:07:40.895Z,14
2022-07-27T03:08:40.891Z,20
2022-07-27T03:09:40.903Z,25
2022-07-27T03:10:40.885Z,29
2022-07-27T03:11:40.900Z,33
2022-07-27T03:12:40.886Z,36
2022-07-27T03:13:40.884Z,42
2022-07-27T03:14:40.935Z,46
2022-07-27T03:15:40.914Z,49
2022-07-27T03:16:40.880Z,55
2022-07-27T03:17:40.896Z,58
2022-07-27T03:18:40.900Z,62
2022-07-27T03:19:40.905Z,66
2022-07-27T03:20:40.886Z,71
2022-07-27T03:21:40.879Z,79
2022-07-27T03:22:40.879Z,88
2022-07-27T03:23:40.888Z,95
2022-07-27T03:24:40.897Z,103
2022-07-27T03:25:40.886Z,110
2022-07-27T03:26:40.898Z,117
2022-07-27T03:27:40.879Z,127
2022-07-27T03:28:40.894Z,134
2022-07-27T03:29:40.902Z,143
2022-07-27T03:30:40.977Z,149
2022-07-27T03:31:40.879Z,158
2022-07-27T03:32:40.880Z,165
2022-07-27T03:33:40.879Z,171
2022-07-27T03:34:40.894Z,178
2022-07-27T03:35:40.888Z,182
2022-07-27T03:36:40.890Z,182
2022-07-27T03:37:40.879Z,182
2022-07-27T03:38:40.885Z,189
2022-07-27T03:39:40.899Z,204
2022-07-27T03:40:40.903Z,221
2022-07-27T03:41:40.900Z,243
2022-07-27T03:42:40.889Z,254
2022-07-27T03:43:40.887Z,261
2022-07-27T03:44:40.903Z,265
2022-07-27T03:45:40.992Z,265
2022-07-27T03:46:40.887Z,269
2022-07-27T03:47:40.885Z,259
2022-07-27T03:48:40.922Z,250
2022-07-27T03:49:40.911Z,248
2022-07-27T03:50:40.888Z,254
2022-07-27T03:51:40.879Z,259
2022-07-27T03:52:40.876Z,267
2022-07-27T03:53:40.879Z,276
2022-07-27T03:54:40.898Z,291
2022-07-27T03:55:40.886Z,315
2022-07-27T03:56:40.895Z,344
2022-07-27T03:57:40.883Z,377
2022-07-27T03:58:40.883Z,401
2022-07-27T03:59:40.895Z,433
2022-07-27T04:00:40.879Z,475
2022-07-27T04:01:40.946Z,523
2022-07-27T04:02:40.995Z,575
2022-07-27T04:03:44.211Z,632
2022-07-27T04:04:40.973Z,681
2022-07-27T04:05:40.877Z,731
2022-07-27T04:06:40.884Z,775
2022-07-27T04:07:40.875Z,775
2022-07-27T04:08:40.880Z,851
2022-07-27T04:09:41.586Z,881
2022-07-27T04:10:40.884Z,917
2022-07-27T04:11:50.622Z,960
2022-07-27T04:12:41.488Z,967
2022-07-27T04:13:40.886Z,958
2022-07-27T04:14:40.904Z,982
2022-07-27T04:15:40.955Z,997
2022-07-27T04:16:40.930Z,1000
2022-07-27T04:17:56.388Z,993
2022-07-27T04:18:40.885Z,999
2022-07-27T04:19:40.897Z,1030
2022-07-27T04:20:40.874Z,1069
2022-07-27T04:21:40.882Z,1102
2022-07-27T04:22:40.882Z,1115
2022-07-27T04:23:40.876Z,1096
2022-07-27T04:24:40.901Z,1021
2022-07-27T04:25:40.878Z,963
2022-07-27T04:26:40.893Z,934
2022-07-27T04:27:40.873Z,873
2022-07-27T04:28:40.900Z,822
2022-07-27T04:29:40.887Z,764
2022-07-27T04:30:40.907Z,733
2022-07-27T04:31:40.893Z,737
2022-07-27T04:32:40.877Z,766
2022-07-27T04:33:40.892Z,799
2022-07-27T04:34:40.911Z,846
2022-07-27T04:35:40.900Z,899
2022-07-27T04:36:40.907Z,949
2022-07-27T04:37:40.903Z,1034
2022-07-27T04:38:40.892Z,1126
2022-07-27T04:39:41.012Z,1264
2022-07-27T04:40:40.889Z,1391
2022-07-27T04:41:40.887Z,1511
2022-07-27T04:42:49.446Z,1623
2022-07-27T04:43:40.876Z,1732
2022-07-27T04:44:40.888Z,1845
2022-07-27T04:45:40.933Z,1996
2022-07-27T04:46:40.943Z,2099
2022-07-27T04:47:40.869Z,2162
2022-07-27T04:48:41.400Z,2152
2022-07-27T04:49:40.879Z,2040
2022-07-27T04:50:40.892Z,2036
2022-07-27T04:51:40.889Z,2053
2022-07-27T04:52:40.889Z,2073
2022-07-27T04:53:53.709Z,2057
2022-07-27T04:54:40.921Z,2143
2022-07-27T04:55:40.874Z,2270
2022-07-27T04:56:40.889Z,2453
2022-07-27T04:57:40.877Z,2639
2022-07-27T04:58:40.866Z,2855
2022-07-27T04:59:40.890Z,3041
2022-07-27T05:00:40.864Z,3253
2022-07-27T05:01:40.948Z,3330
2022-07-27T05:02:40.866Z,3207
2022-07-27T05:03:40.940Z,3146
2022-07-27T05:04:40.896Z,2965
2022-07-27T05:05:40.888Z,2702
2022-07-27T05:06:40.878Z,2456
2022-07-27T05:07:40.891Z,2456
2022-07-27T05:08:40.885Z,2090
2022-07-27T05:09:40.903Z,1953
2022-07-27T05:10:40.895Z,1863
2022-07-27T05:11:40.891Z,1824
2022-07-27T05:12:40.871Z,1780
2022-07-27T05:13:40.873Z,1739
2022-07-27T05:14:40.888Z,1717
2022-07-27T05:15:54.951Z,1684
2022-07-27T05:16:40.906Z,1649
2022-07-27T05:17:40.869Z,1636
2022-07-27T05:18:40.872Z,1688
2022-07-27T05:19:41.081Z,1730
2022-07-27T05:20:40.871Z,1758
2022-07-27T05:21:40.875Z,1793
2022-07-27T05:22:40.886Z,1856
2022-07-27T05:23:40.875Z,1915
2022-07-27T05:24:40.896Z,1931
2022-07-27T05:25:40.877Z,1909
2022-07-27T05:26:40.890Z,1870
2022-07-27T05:27:53.924Z,1833
2022-07-27T05:28:40.876Z,1821
2022-07-27T05:29:40.890Z,1841
2022-07-27T05:30:40.886Z,1830
2022-07-27T05:31:40.926Z,1822
2022-07-27T05:32:40.880Z,1841
2022-07-27T05:33:43.990Z,1872
2022-07-27T05:34:40.888Z,1964
2022-07-27T05:35:40.875Z,2073
2022-07-27T05:36:40.879Z,2138
2022-07-27T05:37:40.874Z,2171
2022-07-27T05:38:40.874Z,2184
2022-07-27T05:39:40.943Z,2197
2022-07-27T05:40:40.898Z,2237
2022-07-27T05:41:40.893Z,2287
2022-07-27T05:42:40.882Z,2313
2022-07-27T05:43:40.881Z,2320
2022-07-27T05:44:40.893Z,2305
2022-07-27T05:45:40.987Z,2257
2022-07-27T05:46:40.880Z,2186
2022-07-27T05:47:40.883Z,2086
2022-07-27T05:48:40.957Z,1990
2022-07-27T05:49:40.891Z,1929
2022-07-27T05:50:40.871Z,1916
2022-07-27T05:51:40.881Z,1924
2022-07-27T05:52:40.871Z,1926
2022-07-27T05:53:40.879Z,1883
2022-07-27T05:54:40.886Z,1810
2022-07-27T05:55:58.760Z,1751
2022-07-27T05:56:40.902Z,1703
2022-07-27T05:57:40.897Z,1655
2022-07-27T05:58:40.887Z,1605
2022-07-27T05:59:40.899Z,1568
2022-07-27T06:00:40.947Z,1524
2022-07-27T06:01:40.882Z,1472
2022-07-27T06:02:40.891Z,1435
2022-07-27T06:03:40.951Z,1410
2022-07-27T06:04:40.890Z,1402
2022-07-27T06:05:40.874Z,1437
2022-07-27T06:06:40.874Z,1496
2022-07-27T06:08:27.978Z,1728
2022-07-27T06:09:26.537Z,1874
2022-07-27T06:10:26.493Z,1874
2022-07-27T06:11:26.445Z,2112
2022-07-27T06:12:29.983Z,2158
2022-07-27T06:13:28.452Z,2112
2022-07-27T06:14:26.447Z,2049
2022-07-27T06:15:26.397Z,2075
2022-07-27T06:16:26.479Z,2165
2022-07-27T06:17:26.372Z,2291
2022-07-27T06:18:26.377Z,2412
2022-07-27T06:19:36.178Z,2549
2022-07-27T06:20:26.384Z,2549
2022-07-27T06:21:26.378Z,2792
2022-07-27T06:22:26.380Z,2855
2022-07-27T06:23:26.370Z,2939
2022-07-27T06:24:26.368Z,3002
2022-07-27T06:25:34.100Z,3030
2022-07-27T06:26:26.368Z,2969
2022-07-27T06:27:29.493Z,2768
2022-07-27T06:28:26.386Z,2421
2022-07-27T06:29:26.374Z,2077
2022-07-27T06:30:26.416Z,2077
2022-07-27T06:31:26.449Z,1811
2022-07-27T06:32:26.378Z,1811
2022-07-27T06:33:26.382Z,1826
2022-07-27T06:34:26.381Z,1828
2022-07-27T06:35:26.386Z,1821
2022-07-27T06:36:26.380Z,1833
2022-07-27T06:37:26.374Z,1835
2022-07-27T06:38:26.373Z,1798
2022-07-27T06:39:26.373Z,1756
2022-07-27T06:40:29.572Z,1756
2022-07-27T06:41:26.401Z,1832
2022-07-27T06:42:26.409Z,1966
2022-07-27T06:43:26.384Z,2128
2022-07-27T06:44:26.440Z,2337
2022-07-27T06:45:26.395Z,2534
2022-07-27T06:46:26.452Z,2696
2022-07-27T06:47:28.886Z,2783
2022-07-27T06:48:26.384Z,2838
2022-07-27T06:49:26.495Z,2882
2022-07-27T06:50:26.388Z,2882
2022-07-27T06:51:26.409Z,2890
2022-07-27T06:52:26.430Z,2939
2022-07-27T06:53:26.381Z,3009
2022-07-27T06:54:26.376Z,3067
2022-07-27T06:55:26.468Z,3118
2022-07-27T06:56:26.407Z,3162
2022-07-27T06:57:26.421Z,3201
2022-07-27T06:58:26.374Z,3197
2022-07-27T06:59:26.369Z,3179
2022-07-27T07:00:26.701Z,3179
2022-07-27T07:01:26.465Z,3162
2022-07-27T07:02:26.387Z,3159
2022-07-27T07:03:26.455Z,3172
2022-07-27T07:04:26.377Z,3197
2022-07-27T07:05:26.397Z,3242
2022-07-27T07:06:26.367Z,3258
2022-07-27T07:07:26.366Z,3258
2022-07-27T07:08:26.368Z,3321
2022-07-27T07:09:26.366Z,3419
2022-07-27T07:10:26.445Z,3419
2022-07-27T07:11:26.376Z,3642
2022-07-27T07:12:26.382Z,3754
2022-07-27T07:13:26.368Z,3837
2022-07-27T07:14:26.387Z,3914
2022-07-27T07:15:26.606Z,3959
2022-07-27T07:16:26.462Z,4018
2022-07-27T07:17:26.370Z,4134
2022-07-27T07:18:26.386Z,4252
2022-07-27T07:19:26.374Z,4302
2022-07-27T07:20:26.388Z,4302
2022-07-27T07:21:26.369Z,4626
2022-07-27T07:22:26.371Z,4987
2022-07-27T07:23:26.377Z,5363
2022-07-27T07:24:26.397Z,5645
2022-07-27T07:25:26.389Z,5689
2022-07-27T07:26:26.373Z,5723
2022-07-27T07:27:26.387Z,5763
2022-07-27T07:28:26.367Z,5774
2022-07-27T07:29:26.374Z,5806
2022-07-27T07:30:26.386Z,5806
2022-07-27T07:31:26.473Z,5824
2022-07-27T07:32:33.050Z,5760
2022-07-27T07:33:26.374Z,5627
2022-07-27T07:34:26.368Z,5313
2022-07-27T07:35:26.388Z,5264
2022-07-27T07:36:26.365Z,5597
2022-07-27T07:37:33.732Z,6137
2022-07-27T07:38:26.365Z,6688
2022-07-27T07:39:31.164Z,6851
2022-07-27T07:40:43.288Z,6851
2022-07-27T07:41:26.518Z,6469
2022-07-27T07:42:26.387Z,6255
2022-07-27T07:43:26.372Z,6482
2022-07-27T07:44:26.379Z,6937
2022-07-27T07:45:26.390Z,7531
2022-07-27T07:46:26.427Z,8522
2022-07-27T07:47:26.369Z,8821
2022-07-27T07:48:26.371Z,8803
2022-07-27T07:49:39.560Z,8661
2022-07-27T07:50:26.385Z,8661
2022-07-27T07:51:26.373Z,8504
2022-07-27T07:52:26.364Z,11665
2022-07-27T07:53:26.372Z,12784
2022-07-27T07:54:26.366Z,7693
2022-07-27T07:55:26.394Z,6862
2022-07-27T07:56:26.387Z,6657
2022-07-27T07:57:26.385Z,6283
2022-07-27T07:58:26.368Z,6209
2022-07-27T07:59:26.401Z,6193
2022-07-27T08:00:26.412Z,6241
2022-07-27T08:01:26.514Z,6300
2022-07-27T08:02:26.473Z,6311
2022-07-27T08:03:26.463Z,6340
2022-07-27T08:04:26.391Z,6360
2022-07-27T08:05:26.398Z,6277
2022-07-27T08:06:26.413Z,6336
2022-07-27T08:07:26.395Z,6336
2022-07-27T08:08:26.386Z,7026
2022-07-27T08:09:26.385Z,7439
2022-07-27T08:10:26.398Z,7439
2022-07-27T08:11:26.378Z,8633
2022-07-27T08:12:26.373Z,9160
2022-07-27T08:13:26.354Z,9490
2022-07-27T08:14:26.365Z,9486
2022-07-27T08:15:30.112Z,9037
2022-07-27T08:16:26.439Z,7964
2022-07-27T08:17:26.354Z,7407
2022-07-27T08:18:26.373Z,7363
2022-07-27T08:19:26.371Z,7457
2022-07-27T08:20:26.390Z,7457
2022-07-27T08:21:26.384Z,7297
2022-07-27T08:22:26.372Z,7035
2022-07-27T08:23:26.367Z,6668
2022-07-27T08:24:26.383Z,6263
2022-07-27T08:25:26.399Z,5971
2022-07-27T08:26:26.360Z,5760
2022-07-27T08:27:26.389Z,5653
2022-07-27T08:28:26.356Z,5579
2022-07-27T08:29:32.292Z,5479
2022-07-27T08:30:26.392Z,5479
2022-07-27T08:31:51.314Z,5269
2022-07-27T08:32:28.839Z,5181
2022-07-27T08:33:26.361Z,5140
2022-07-27T08:34:26.370Z,5118
2022-07-27T08:35:26.461Z,5076
2022-07-27T08:36:26.362Z,4980
2022-07-27T08:37:26.380Z,4897
2022-07-27T08:38:26.362Z,4829
2022-07-27T08:40:19.826Z,4703
2022-07-27T08:40:41.750Z,4703
2022-07-27T08:41:26.381Z,4630
2022-07-27T08:42:26.392Z,4523
2022-07-27T08:43:26.358Z,4419
2022-07-27T08:44:26.372Z,4230
2022-07-27T08:45:26.375Z,4200
2022-07-27T08:46:26.468Z,4208
2022-07-27T08:47:26.376Z,4224
2022-07-27T08:48:26.360Z,4270
2022-07-27T08:49:42.117Z,4313
2022-07-27T08:50:26.397Z,4313
2022-07-27T08:51:26.372Z,4333
2022-07-27T08:52:26.372Z,4384
2022-07-27T08:53:26.375Z,4377
2022-07-27T08:54:26.376Z,4344
2022-07-27T08:55:26.384Z,4296
2022-07-27T08:56:26.359Z,4235
2022-07-27T08:57:26.382Z,4198
2022-07-27T08:58:26.369Z,4219
2022-07-27T08:59:26.369Z,4220
2022-07-27T09:00:26.734Z,4220
2022-07-27T09:01:26.457Z,4361
2022-07-27T09:02:26.501Z,4464
2022-07-27T09:03:26.390Z,4554
2022-07-27T09:04:26.354Z,4643
2022-07-27T09:05:36.241Z,4720
2022-07-27T09:06:26.372Z,4796
2022-07-27T09:07:26.375Z,4796
2022-07-27T09:08:26.365Z,5013
2022-07-27T09:09:26.385Z,5120
2022-07-27T09:10:26.406Z,5120
2022-07-27T09:11:26.434Z,5269
2022-07-27T09:12:26.372Z,5256
2022-07-27T09:13:26.363Z,5197
2022-07-27T09:14:26.360Z,5137
2022-07-27T09:15:34.194Z,5009
2022-07-27T09:16:37.624Z,4827
2022-07-27T09:17:47.807Z,4678
2022-07-27T09:18:26.413Z,4600
2022-07-27T09:19:26.384Z,4578
2022-07-27T09:20:26.383Z,4578
2022-07-27T09:21:26.371Z,4696
2022-07-27T09:22:26.367Z,4711
2022-07-27T09:23:26.368Z,4742
2022-07-27T09:25:52.277Z,4878
2022-07-27T09:26:32.543Z,5026
2022-07-27T09:27:26.382Z,5216
2022-07-27T09:28:26.359Z,5459
2022-07-27T09:29:26.387Z,5706
2022-07-27T09:30:26.368Z,5706
2022-07-27T09:31:26.491Z,6395
2022-07-27T09:32:26.359Z,6633
2022-07-27T09:33:26.364Z,6633
2022-07-27T09:34:26.362Z,6873
2022-07-27T09:35:26.376Z,7042
2022-07-27T09:36:26.369Z,7229
2022-07-27T09:37:26.377Z,7265
2022-07-27T09:38:26.370Z,7127
2022-07-27T09:39:26.366Z,6932
2022-07-27T09:40:26.391Z,6847
2022-07-27T09:41:27.007Z,6294
2022-07-27T09:43:05.774Z,5929
2022-07-27T09:44:27.595Z,5656
2022-07-27T09:44:34.605Z,5476
2022-07-27T09:45:26.376Z,5376
2022-07-27T09:46:26.407Z,5302
2022-07-27T09:47:26.574Z,5249
2022-07-27T09:48:26.361Z,5223
2022-07-27T09:49:26.373Z,5249
2022-07-27T09:50:26.376Z,5249
2022-07-27T09:51:58.914Z,5400
2022-07-27T09:52:26.360Z,5466
2022-07-27T09:53:42.350Z,5485
2022-07-27T09:54:26.363Z,5494
2022-07-27T09:55:26.395Z,5536
2022-07-27T09:56:26.367Z,5623
2022-07-27T09:57:26.377Z,5677
2022-07-27T09:58:26.374Z,5743
2022-07-27T09:59:28.137Z,5870
2022-07-27T10:00:26.381Z,5870
2022-07-27T10:01:26.435Z,5992
2022-07-27T10:02:26.433Z,6112
2022-07-27T10:03:26.361Z,5894
2022-07-27T10:04:26.440Z,5811
2022-07-27T10:05:26.367Z,5750
2022-07-27T10:06:26.385Z,5760
2022-07-27T10:07:26.359Z,5760
2022-07-27T10:08:26.370Z,5776
2022-07-27T10:09:26.366Z,5743
2022-07-27T10:10:26.380Z,5743
2022-07-27T10:11:26.368Z,5701
2022-07-27T10:12:26.389Z,5619
2022-07-27T10:13:26.361Z,5575
2022-07-27T10:14:26.363Z,5608
2022-07-27T10:15:26.373Z,5684
2022-07-27T10:16:26.413Z,5783
2022-07-27T10:17:26.394Z,5822
2022-07-27T10:18:26.371Z,5741
2022-07-27T10:19:26.366Z,5538
2022-07-27T10:20:26.406Z,5538
2022-07-27T10:21:26.366Z,5236
2022-07-27T10:22:26.365Z,5020
2022-07-27T10:23:26.366Z,4827
2022-07-27T10:24:26.994Z,4690
2022-07-27T10:25:26.385Z,4659
2022-07-27T10:26:26.372Z,4738
2022-07-27T10:27:26.376Z,4878
2022-07-27T10:28:26.371Z,4878
2022-07-27T10:29:26.364Z,5184
2022-07-27T10:30:27.866Z,5184
2022-07-27T10:31:26.471Z,5254
2022-07-27T10:32:26.373Z,5293
2022-07-27T10:33:26.370Z,5332
2022-07-27T10:34:26.366Z,5645
2022-07-27T10:35:26.384Z,5818
2022-07-27T10:36:26.370Z,5986
2022-07-27T10:37:26.368Z,6091
2022-07-27T10:38:26.371Z,6080
2022-07-27T10:39:26.370Z,6029
2022-07-27T10:40:26.549Z,6029
2022-07-27T10:41:26.365Z,5833
2022-07-27T10:42:26.384Z,5715
2022-07-27T10:43:26.366Z,5575
2022-07-27T10:44:26.364Z,5411
2022-07-27T10:45:26.399Z,5238
2022-07-27T10:46:26.398Z,5066
2022-07-27T10:47:26.376Z,4902
2022-07-27T10:48:26.367Z,4796
2022-07-27T10:49:26.438Z,4786
2022-07-27T10:50:26.373Z,4786
2022-07-27T10:51:26.367Z,4742
2022-07-27T10:52:26.363Z,4654
2022-07-27T10:53:26.365Z,4576
2022-07-27T10:54:26.737Z,4456
2022-07-27T10:55:26.378Z,4348
2022-07-27T10:56:26.367Z,4283
2022-07-27T10:57:26.392Z,4294
2022-07-27T10:58:26.377Z,4381
2022-07-27T10:59:35.605Z,4493
2022-07-27T11:00:26.389Z,4493
2022-07-27T11:01:26.453Z,4694
2022-07-27T11:02:26.369Z,4777
2022-07-27T11:03:26.374Z,4843
2022-07-27T11:04:26.498Z,4897
2022-07-27T11:05:58.496Z,4945
2022-07-27T11:06:34.615Z,4950
2022-07-27T11:07:31.107Z,4950
2022-07-27T11:08:40.913Z,5050
2022-07-27T11:10:02.902Z,5197
2022-07-27T11:10:26.383Z,5197
2022-07-27T11:11:26.366Z,5555
2022-07-27T11:12:26.389Z,5680
2022-07-27T11:13:26.384Z,5726
2022-07-27T11:14:30.765Z,5701
2022-07-27T11:15:26.383Z,5573
2022-07-27T11:16:26.432Z,5428
2022-07-27T11:17:57.569Z,5323
2022-07-27T11:18:28.280Z,5225
2022-07-27T11:19:26.456Z,5149
2022-07-27T11:20:31.296Z,5149
2022-07-27T11:21:26.921Z,5113
2022-07-27T11:22:29.305Z,5166
2022-07-27T11:23:50.504Z,5266
2022-07-27T11:24:26.367Z,5393
2022-07-27T11:25:26.393Z,5577
2022-07-27T11:26:26.386Z,5806
2022-07-27T11:27:26.396Z,6036
2022-07-27T11:28:26.383Z,6036
2022-07-27T11:29:26.393Z,6333
2022-07-27T11:30:26.470Z,6488
2022-07-27T11:31:53.912Z,6447
2022-07-27T11:32:26.380Z,6418
2022-07-27T11:33:26.364Z,6438
2022-07-27T11:34:26.366Z,6583
2022-07-27T11:35:26.381Z,7135
2022-07-27T11:36:26.356Z,7245
2022-07-27T11:37:26.380Z,7476
2022-07-27T11:38:26.362Z,7334
2022-07-27T11:39:44.018Z,7107
2022-07-27T11:40:56.306Z,7107
2022-07-27T11:41:40.965Z,6351
2022-07-27T11:42:26.389Z,6075
2022-07-27T11:43:26.374Z,5837
2022-07-27T11:44:26.377Z,5706
2022-07-27T11:45:26.392Z,5571
2022-07-27T11:46:26.420Z,5501
2022-07-27T11:47:26.401Z,5430
2022-07-27T11:48:35.011Z,5404
2022-07-27T11:49:26.547Z,5393
2022-07-27T11:50:26.433Z,5393
2022-07-27T11:51:26.375Z,5315
2022-07-27T11:52:26.373Z,5271
2022-07-27T11:53:26.377Z,5199
2022-07-27T11:54:26.377Z,5122
2022-07-27T11:55:26.421Z,4987
2022-07-27T11:56:26.368Z,4987
2022-07-27T11:57:26.388Z,4788
2022-07-27T11:58:26.455Z,4808
2022-07-27T11:59:26.365Z,4867
2022-07-27T12:00:26.383Z,4867
2022-07-27T12:01:26.385Z,5019
2022-07-27T12:02:26.418Z,5057
2022-07-27T12:03:32.135Z,5105
2022-07-27T12:04:26.453Z,5138
2022-07-27T12:05:26.475Z,5166
2022-07-27T12:06:26.409Z,5277
2022-07-27T12:07:26.367Z,5277
2022-07-27T12:08:26.378Z,5866
2022-07-27T12:09:26.400Z,6266
2022-07-27T12:10:26.399Z,6351
2022-07-27T12:11:34.140Z,6126
2022-07-27T12:12:26.394Z,5839
2022-07-27T12:13:26.375Z,5610
2022-07-27T12:14:26.378Z,5584
2022-07-27T12:15:45.489Z,5697
2022-07-27T12:16:26.462Z,5828
2022-07-27T12:17:26.378Z,5872
2022-07-27T12:18:26.370Z,5887
2022-07-27T12:19:26.384Z,5925
2022-07-27T12:20:26.382Z,5973
2022-07-27T12:21:26.362Z,5997
2022-07-27T12:22:26.361Z,5887
2022-07-27T12:23:26.363Z,5763
2022-07-27T12:24:26.363Z,5651
2022-07-27T12:25:26.374Z,5583
2022-07-27T12:26:30.059Z,5557
2022-07-27T12:27:26.396Z,5601
2022-07-27T12:28:26.393Z,5601
2022-07-27T12:29:26.385Z,5682
2022-07-27T12:30:26.432Z,5854
2022-07-27T12:31:26.497Z,6091
2022-07-27T12:32:26.452Z,6406
2022-07-27T12:33:26.445Z,6799
2022-07-27T12:34:26.402Z,7140
2022-07-27T12:35:26.397Z,7496
2022-07-27T12:36:26.394Z,8115
2022-07-27T12:37:26.385Z,8115
2022-07-27T12:38:26.366Z,8762
2022-07-27T12:39:26.364Z,9286
2022-07-27T12:40:26.389Z,9286
2022-07-27T12:41:26.373Z,10519
2022-07-27T12:42:26.377Z,10515
2022-07-27T12:43:26.341Z,9973
2022-07-27T12:44:26.368Z,9547
2022-07-27T12:45:26.381Z,9249
2022-07-27T12:46:26.425Z,8954
2022-07-27T12:47:27.937Z,8651
2022-07-27T12:48:26.377Z,8228
2022-07-27T12:49:26.475Z,7894
2022-07-27T12:50:26.649Z,7894
2022-07-27T12:51:26.380Z,7302
2022-07-27T12:52:26.457Z,7173
2022-07-27T12:53:26.380Z,7118
2022-07-27T12:54:26.410Z,7125
2022-07-27T12:55:26.396Z,6998
2022-07-27T12:56:27.544Z,6891
2022-07-27T12:57:53.403Z,6788
2022-07-27T12:58:26.380Z,6572
2022-07-27T12:59:26.467Z,6497
2022-07-27T13:00:31.138Z,6497
2022-07-27T13:01:26.460Z,6266
2022-07-27T13:02:26.777Z,6169
2022-07-27T13:03:26.394Z,6134
2022-07-27T13:04:26.389Z,6078
2022-07-27T13:05:26.392Z,6121
2022-07-27T13:06:26.561Z,6211
2022-07-27T13:07:26.380Z,6211
2022-07-27T13:08:26.445Z,6526
2022-07-27T13:10:02.083Z,6663
2022-07-27T13:10:26.402Z,6663
2022-07-27T13:11:26.419Z,6690
2022-07-27T13:12:26.448Z,6587
2022-07-27T13:13:26.874Z,6429
2022-07-27T13:14:26.563Z,6359
2022-07-27T13:15:26.407Z,6285
2022-07-27T13:16:26.473Z,6285
2022-07-27T13:17:26.415Z,6259
2022-07-27T13:18:26.377Z,6228
2022-07-27T13:19:26.406Z,6226
2022-07-27T13:20:26.487Z,6226
2022-07-27T13:21:26.411Z,6222
2022-07-27T13:22:26.382Z,6231
2022-07-27T13:23:26.368Z,6311
2022-07-27T13:24:26.490Z,6250
2022-07-27T13:25:26.429Z,6239
2022-07-27T13:26:27.690Z,6537
2022-07-27T13:27:26.386Z,6827
2022-07-27T13:28:26.374Z,7125
2022-07-27T13:29:26.673Z,7590
2022-07-27T13:30:26.390Z,7590
2022-07-27T13:31:26.495Z,8049
2022-07-27T13:32:26.504Z,8095
2022-07-27T13:33:26.379Z,9442
2022-07-27T13:34:26.384Z,11031
2022-07-27T13:35:26.547Z,8570
2022-07-27T13:36:26.368Z,8235
2022-07-27T13:37:26.415Z,8235
2022-07-27T13:38:26.416Z,8172
2022-07-27T13:39:26.378Z,8233
2022-07-27T13:40:26.478Z,8233
2022-07-27T13:41:26.371Z,9505
2022-07-27T13:42:26.446Z,10015